sensor_id;sensor_type;location;lat;lon;timestamp;pressure;altitude;pressure_sealevel;temperature;humidity
52855;BME280;38719;51.418;7.286;2023-05-02T00:02:01;100049.81;;;13.37;68.00
52855;BME280;38719;51.418;7.286;2023-05-02T00:04:29;100051.84;;;12.82;69.70
52855;BME280;38719;51.418;7.286;2023-05-02T00:06:56;100048.63;;;12.76;70.26
52855;BME280;38719;51.418;7.286;2023-05-02T00:09:24;100044.50;;;12.52;70.40
52855;BME280;38719;51.418;7.286;2023-05-02T00:11:51;100049.41;;;12.25;72.12
52855;BME280;38719;51.418;7.286;2023-05-02T00:14:20;100054.41;;;12.33;71.69
52855;BME280;38719;51.418;7.286;2023-05-02T00:16:48;100056.88;;;12.53;70.94
52855;BME280;38719;51.418;7.286;2023-05-02T00:19:15;100058.31;;;12.43;70.93
52855;BME280;38719;51.418;7.286;2023-05-02T00:21:46;100057.06;;;12.50;71.20
52855;BME280;38719;51.418;7.286;2023-05-02T00:24:13;100065.56;;;12.58;69.59
52855;BME280;38719;51.418;7.286;2023-05-02T00:26:41;100063.13;;;12.54;70.11
52855;BME280;38719;51.418;7.286;2023-05-02T00:29:09;100065.03;;;12.85;69.71
52855;BME280;38719;51.418;7.286;2023-05-02T00:31:39;100074.50;;;12.75;69.92
52855;BME280;38719;51.418;7.286;2023-05-02T00:34:07;100069.63;;;12.83;69.46
52855;BME280;38719;51.418;7.286;2023-05-02T00:36:34;100067.56;;;13.22;68.16
52855;BME280;38719;51.418;7.286;2023-05-02T00:39:02;100079.28;;;13.19;68.68
52855;BME280;38719;51.418;7.286;2023-05-02T00:41:30;100076.16;;;13.11;68.41
52855;BME280;38719;51.418;7.286;2023-05-02T00:43:58;100084.88;;;13.15;68.43
52855;BME280;38719;51.418;7.286;2023-05-02T00:46:26;100076.69;;;13.18;68.42
52855;BME280;38719;51.418;7.286;2023-05-02T00:48:55;100078.78;;;13.29;66.80
52855;BME280;38719;51.418;7.286;2023-05-02T00:51:22;100079.09;;;13.22;67.97
52855;BME280;38719;51.418;7.286;2023-05-02T00:53:50;100081.25;;;12.82;68.98
52855;BME280;38719;51.418;7.286;2023-05-02T00:56:17;100082.28;;;13.13;68.55
52855;BME280;38719;51.418;7.286;2023-05-02T00:58:45;100084.91;;;12.97;69.73
52855;BME280;38719;51.418;7.286;2023-05-02T01:01:23;100077.88;;;13.12;68.13
52855;BME280;38719;51.418;7.286;2023-05-02T01:04:03;100087.50;;;12.99;68.98
52855;BME280;38719;51.418;7.286;2023-05-02T01:06:40;100080.00;;;13.23;67.66
52855;BME280;38719;51.418;7.286;2023-05-02T01:09:21;100083.81;;;13.01;68.68
52855;BME280;38719;51.418;7.286;2023-05-02T01:11:58;100082.81;;;13.20;67.70
52855;BME280;38719;51.418;7.286;2023-05-02T01:14:30;100089.69;;;13.08;68.89
52855;BME280;38719;51.418;7.286;2023-05-02T01:17:01;100089.97;;;13.19;67.75
52855;BME280;38719;51.418;7.286;2023-05-02T01:19:34;100089.53;;;13.11;68.13
52855;BME280;38719;51.418;7.286;2023-05-02T01:22:05;100091.28;;;12.95;69.48
52855;BME280;38719;51.418;7.286;2023-05-02T01:24:37;100093.56;;;13.02;69.34
52855;BME280;38719;51.418;7.286;2023-05-02T01:27:14;100099.59;;;13.06;69.80
52855;BME280;38719;51.418;7.286;2023-05-02T01:29:49;100099.66;;;12.71;69.84
52855;BME280;38719;51.418;7.286;2023-05-02T01:32:19;100101.69;;;12.83;69.71
52855;BME280;38719;51.418;7.286;2023-05-02T01:34:48;100112.28;;;12.85;70.00
52855;BME280;38719;51.418;7.286;2023-05-02T01:37:17;100104.34;;;13.01;68.63
52855;BME280;38719;51.418;7.286;2023-05-02T01:39:47;100109.06;;;12.96;70.04
52855;BME280;38719;51.418;7.286;2023-05-02T01:42:19;100109.72;;;13.17;68.71
52855;BME280;38719;51.418;7.286;2023-05-02T01:44:50;100108.41;;;13.08;68.97
52855;BME280;38719;51.418;7.286;2023-05-02T01:47:20;100107.16;;;13.31;68.29
52855;BME280;38719;51.418;7.286;2023-05-02T01:49:48;100109.22;;;13.60;67.86
52855;BME280;38719;51.418;7.286;2023-05-02T01:52:17;100115.78;;;13.03;69.17
52855;BME280;38719;51.418;7.286;2023-05-02T01:54:49;100119.13;;;13.08;69.25
52855;BME280;38719;51.418;7.286;2023-05-02T01:57:18;100112.25;;;13.02;68.33
52855;BME280;38719;51.418;7.286;2023-05-02T01:59:49;100118.09;;;12.76;69.63
52855;BME280;38719;51.418;7.286;2023-05-02T02:02:17;100126.09;;;12.76;69.81
52855;BME280;38719;51.418;7.286;2023-05-02T02:04:46;100135.09;;;12.92;70.15
52855;BME280;38719;51.418;7.286;2023-05-02T02:07:15;100138.47;;;12.96;69.53
52855;BME280;38719;51.418;7.286;2023-05-02T02:09:42;100138.06;;;13.03;69.10
52855;BME280;38719;51.418;7.286;2023-05-02T02:12:11;100140.81;;;12.84;70.52
52855;BME280;38719;51.418;7.286;2023-05-02T02:14:42;100140.66;;;12.70;70.60
52855;BME280;38719;51.418;7.286;2023-05-02T02:17:15;100146.84;;;12.88;70.19
52855;BME280;38719;51.418;7.286;2023-05-02T02:19:47;100147.78;;;12.87;69.41
52855;BME280;38719;51.418;7.286;2023-05-02T02:22:17;100155.28;;;12.63;70.32
52855;BME280;38719;51.418;7.286;2023-05-02T02:24:47;100154.69;;;12.56;70.66
52855;BME280;38719;51.418;7.286;2023-05-02T02:27:14;100160.22;;;12.70;70.21
52855;BME280;38719;51.418;7.286;2023-05-02T02:29:42;100163.28;;;12.80;70.90
52855;BME280;38719;51.418;7.286;2023-05-02T02:32:10;100161.56;;;12.62;70.24
52855;BME280;38719;51.418;7.286;2023-05-02T02:34:39;100164.13;;;12.46;70.10
52855;BME280;38719;51.418;7.286;2023-05-02T02:37:10;100156.28;;;12.60;70.39
52855;BME280;38719;51.418;7.286;2023-05-02T02:39:49;100166.69;;;12.66;70.51
52855;BME280;38719;51.418;7.286;2023-05-02T02:42:24;100164.78;;;12.68;70.23
52855;BME280;38719;51.418;7.286;2023-05-02T02:45:07;100166.00;;;12.44;71.83
52855;BME280;38719;51.418;7.286;2023-05-02T02:47:41;100168.00;;;12.57;71.52
52855;BME280;38719;51.418;7.286;2023-05-02T02:50:16;100162.88;;;12.53;71.38
52855;BME280;38719;51.418;7.286;2023-05-02T02:52:54;100165.63;;;12.51;70.56
52855;BME280;38719;51.418;7.286;2023-05-02T02:55:33;100168.91;;;12.39;71.65
52855;BME280;38719;51.418;7.286;2023-05-02T02:58:14;100176.97;;;12.37;71.38
52855;BME280;38719;51.418;7.286;2023-05-02T03:00:45;100175.09;;;12.39;71.63
52855;BME280;38719;51.418;7.286;2023-05-02T03:03:13;100177.69;;;12.41;71.51
52855;BME280;38719;51.418;7.286;2023-05-02T03:05:43;100188.34;;;12.23;72.46
52855;BME280;38719;51.418;7.286;2023-05-02T03:08:11;100192.31;;;12.15;73.21
52855;BME280;38719;51.418;7.286;2023-05-02T03:10:39;100187.41;;;12.24;72.04
52855;BME280;38719;51.418;7.286;2023-05-02T03:13:06;100196.13;;;12.28;72.01
52855;BME280;38719;51.418;7.286;2023-05-02T03:16:06;100192.41;;;12.13;72.67
52855;BME280;38719;51.418;7.286;2023-05-02T03:18:39;100192.31;;;12.34;72.51
52855;BME280;38719;51.418;7.286;2023-05-02T03:21:08;100194.72;;;12.57;72.27
52855;BME280;38719;51.418;7.286;2023-05-02T03:23:35;100187.88;;;12.69;71.17
52855;BME280;38719;51.418;7.286;2023-05-02T03:26:03;100196.88;;;12.49;71.65
52855;BME280;38719;51.418;7.286;2023-05-02T03:28:31;100196.47;;;12.39;71.83
52855;BME280;38719;51.418;7.286;2023-05-02T03:30:58;100206.66;;;12.31;72.98
52855;BME280;38719;51.418;7.286;2023-05-02T03:33:26;100198.03;;;12.44;71.39
52855;BME280;38719;51.418;7.286;2023-05-02T03:35:53;100207.44;;;12.33;71.93
52855;BME280;38719;51.418;7.286;2023-05-02T03:38:22;100198.25;;;12.58;71.65
52855;BME280;38719;51.418;7.286;2023-05-02T03:40:50;100204.09;;;12.47;72.37
52855;BME280;38719;51.418;7.286;2023-05-02T03:43:17;100210.13;;;12.52;71.24
52855;BME280;38719;51.418;7.286;2023-05-02T03:45:45;100212.38;;;12.43;70.56
52855;BME280;38719;51.418;7.286;2023-05-02T03:48:14;100218.28;;;12.67;70.22
52855;BME280;38719;51.418;7.286;2023-05-02T03:50:41;100222.16;;;12.42;72.01
52855;BME280;38719;51.418;7.286;2023-05-02T03:53:09;100217.53;;;12.65;70.48
52855;BME280;38719;51.418;7.286;2023-05-02T03:55:39;100213.53;;;12.73;69.74
52855;BME280;38719;51.418;7.286;2023-05-02T03:58:08;100216.13;;;12.56;69.74
52855;BME280;38719;51.418;7.286;2023-05-02T04:00:36;100221.84;;;12.67;69.48
52855;BME280;38719;51.418;7.286;2023-05-02T04:03:04;100225.13;;;12.36;69.91
52855;BME280;38719;51.418;7.286;2023-05-02T04:05:32;100221.22;;;12.43;69.57
52855;BME280;38719;51.418;7.286;2023-05-02T04:08:00;100224.75;;;12.44;71.38
52855;BME280;38719;51.418;7.286;2023-05-02T04:10:28;100231.91;;;12.43;70.55
52855;BME280;38719;51.418;7.286;2023-05-02T04:12:57;100232.41;;;12.51;70.06
52855;BME280;38719;51.418;7.286;2023-05-02T04:15:25;100231.13;;;12.78;68.94
52855;BME280;38719;51.418;7.286;2023-05-02T04:17:53;100232.69;;;12.82;68.36
52855;BME280;38719;51.418;7.286;2023-05-02T04:20:20;100231.63;;;12.86;69.06
52855;BME280;38719;51.418;7.286;2023-05-02T04:22:48;100233.78;;;12.41;70.59
52855;BME280;38719;51.418;7.286;2023-05-02T04:25:16;100233.69;;;12.62;70.17
52855;BME280;38719;51.418;7.286;2023-05-02T04:27:43;100234.91;;;12.91;69.44
52855;BME280;38719;51.418;7.286;2023-05-02T04:30:12;100241.50;;;12.84;69.33
52855;BME280;38719;51.418;7.286;2023-05-02T04:32:40;100250.47;;;12.83;68.85
52855;BME280;38719;51.418;7.286;2023-05-02T04:35:08;100254.81;;;12.49;70.68
52855;BME280;38719;51.418;7.286;2023-05-02T04:37:36;100255.34;;;12.55;70.40
52855;BME280;38719;51.418;7.286;2023-05-02T04:40:04;100258.09;;;12.35;71.40
52855;BME280;38719;51.418;7.286;2023-05-02T04:42:33;100261.97;;;12.66;71.99
52855;BME280;38719;51.418;7.286;2023-05-02T04:45:00;100257.03;;;12.76;71.67
52855;BME280;38719;51.418;7.286;2023-05-02T04:47:29;100266.63;;;12.43;72.92
52855;BME280;38719;51.418;7.286;2023-05-02T04:49:57;100264.94;;;12.60;72.04
52855;BME280;38719;51.418;7.286;2023-05-02T04:52:25;100259.81;;;12.74;71.40
52855;BME280;38719;51.418;7.286;2023-05-02T04:54:52;100278.13;;;12.45;72.43
52855;BME280;38719;51.418;7.286;2023-05-02T04:57:20;100277.59;;;12.37;72.65
52855;BME280;38719;51.418;7.286;2023-05-02T04:59:48;100282.41;;;12.67;72.13
52855;BME280;38719;51.418;7.286;2023-05-02T05:02:16;100288.81;;;12.82;71.77
52855;BME280;38719;51.418;7.286;2023-05-02T05:04:45;100279.78;;;12.84;71.33
52855;BME280;38719;51.418;7.286;2023-05-02T05:07:12;100293.59;;;12.75;72.06
52855;BME280;38719;51.418;7.286;2023-05-02T05:09:40;100292.03;;;12.71;72.35
52855;BME280;38719;51.418;7.286;2023-05-02T05:12:07;100298.25;;;12.33;73.96
52855;BME280;38719;51.418;7.286;2023-05-02T05:14:35;100298.94;;;11.99;75.63
52855;BME280;38719;51.418;7.286;2023-05-02T05:17:02;100306.81;;;12.02;76.45
52855;BME280;38719;51.418;7.286;2023-05-02T05:19:30;100307.19;;;12.32;74.33
52855;BME280;38719;51.418;7.286;2023-05-02T05:21:59;100315.31;;;12.10;76.25
52855;BME280;38719;51.418;7.286;2023-05-02T05:24:26;100321.06;;;12.21;75.82
52855;BME280;38719;51.418;7.286;2023-05-02T05:26:54;100323.53;;;12.45;75.43
52855;BME280;38719;51.418;7.286;2023-05-02T05:29:21;100326.31;;;12.23;75.44
52855;BME280;38719;51.418;7.286;2023-05-02T05:31:49;100326.47;;;12.39;75.86
52855;BME280;38719;51.418;7.286;2023-05-02T05:34:16;100332.19;;;12.50;75.35
52855;BME280;38719;51.418;7.286;2023-05-02T05:36:44;100337.28;;;12.17;76.78
52855;BME280;38719;51.418;7.286;2023-05-02T05:39:13;100334.63;;;12.17;77.09
52855;BME280;38719;51.418;7.286;2023-05-02T05:41:40;100344.97;;;12.04;77.03
52855;BME280;38719;51.418;7.286;2023-05-02T05:44:08;100345.28;;;11.75;78.77
52855;BME280;38719;51.418;7.286;2023-05-02T05:46:35;100350.31;;;11.83;77.32
52855;BME280;38719;51.418;7.286;2023-05-02T05:49:03;100346.50;;;12.09;75.83
52855;BME280;38719;51.418;7.286;2023-05-02T05:51:31;100349.28;;;12.06;75.88
52855;BME280;38719;51.418;7.286;2023-05-02T05:53:59;100346.22;;;12.16;75.01
52855;BME280;38719;51.418;7.286;2023-05-02T05:56:28;100353.09;;;11.80;75.74
52855;BME280;38719;51.418;7.286;2023-05-02T05:58:55;100358.47;;;12.01;74.72
52855;BME280;38719;51.418;7.286;2023-05-02T06:01:23;100376.19;;;11.81;74.93
52855;BME280;38719;51.418;7.286;2023-05-02T06:03:51;100375.72;;;11.92;75.13
52855;BME280;38719;51.418;7.286;2023-05-02T06:06:18;100386.53;;;11.68;76.44
52855;BME280;38719;51.418;7.286;2023-05-02T06:08:46;100381.13;;;11.70;76.70
52855;BME280;38719;51.418;7.286;2023-05-02T06:11:13;100385.78;;;11.85;74.87
52855;BME280;38719;51.418;7.286;2023-05-02T06:13:42;100388.38;;;12.09;75.46
52855;BME280;38719;51.418;7.286;2023-05-02T06:16:10;100390.63;;;11.98;74.61
52855;BME280;38719;51.418;7.286;2023-05-02T06:18:37;100388.66;;;11.60;76.50
52855;BME280;38719;51.418;7.286;2023-05-02T06:21:05;100400.00;;;11.86;74.61
52855;BME280;38719;51.418;7.286;2023-05-02T06:23:32;100399.78;;;11.70;75.58
52855;BME280;38719;51.418;7.286;2023-05-02T06:26:01;100397.75;;;11.54;74.85
52855;BME280;38719;51.418;7.286;2023-05-02T06:28:29;100400.56;;;11.51;75.28
52855;BME280;38719;51.418;7.286;2023-05-02T06:30:59;100401.31;;;11.75;75.20
52855;BME280;38719;51.418;7.286;2023-05-02T06:33:27;100411.09;;;11.54;75.74
52855;BME280;38719;51.418;7.286;2023-05-02T06:35:55;100413.53;;;11.81;75.41
52855;BME280;38719;51.418;7.286;2023-05-02T06:38:26;100421.09;;;11.92;73.77
52855;BME280;38719;51.418;7.286;2023-05-02T06:40:54;100428.25;;;11.69;75.32
52855;BME280;38719;51.418;7.286;2023-05-02T06:43:22;100424.84;;;11.66;74.67
52855;BME280;38719;51.418;7.286;2023-05-02T06:45:51;100433.53;;;11.91;75.11
52855;BME280;38719;51.418;7.286;2023-05-02T06:48:20;100432.28;;;12.02;72.87
52855;BME280;38719;51.418;7.286;2023-05-02T06:50:48;100440.28;;;11.80;75.04
52855;BME280;38719;51.418;7.286;2023-05-02T06:53:15;100444.09;;;11.52;74.25
52855;BME280;38719;51.418;7.286;2023-05-02T06:55:43;100445.56;;;11.81;73.82
52855;BME280;38719;51.418;7.286;2023-05-02T06:58:11;100447.75;;;12.14;73.48
52855;BME280;38719;51.418;7.286;2023-05-02T07:00:38;100451.19;;;12.16;73.59
52855;BME280;38719;51.418;7.286;2023-05-02T07:03:06;100450.88;;;12.24;73.17
52855;BME280;38719;51.418;7.286;2023-05-02T07:05:35;100450.63;;;12.70;71.25
52855;BME280;38719;51.418;7.286;2023-05-02T07:08:03;100460.69;;;12.44;71.82
52855;BME280;38719;51.418;7.286;2023-05-02T07:10:31;100466.28;;;12.38;73.28
52855;BME280;38719;51.418;7.286;2023-05-02T07:12:58;100471.63;;;12.38;71.15
52855;BME280;38719;51.418;7.286;2023-05-02T07:15:26;100474.69;;;12.29;71.33
52855;BME280;38719;51.418;7.286;2023-05-02T07:17:53;100480.66;;;12.35;71.37
52855;BME280;38719;51.418;7.286;2023-05-02T07:20:21;100482.31;;;12.38;71.77
52855;BME280;38719;51.418;7.286;2023-05-02T07:22:50;100483.88;;;12.23;70.66
52855;BME280;38719;51.418;7.286;2023-05-02T07:25:18;100484.03;;;11.98;71.37
52855;BME280;38719;51.418;7.286;2023-05-02T07:27:45;100489.94;;;12.27;69.53
52855;BME280;38719;51.418;7.286;2023-05-02T07:30:13;100495.25;;;12.06;71.77
52855;BME280;38719;51.418;7.286;2023-05-02T07:32:40;100507.06;;;12.00;72.28
52855;BME280;38719;51.418;7.286;2023-05-02T07:35:08;100509.41;;;11.86;71.73
52855;BME280;38719;51.418;7.286;2023-05-02T07:37:35;100498.41;;;12.16;71.88
52855;BME280;38719;51.418;7.286;2023-05-02T07:40:06;100507.00;;;12.22;71.39
52855;BME280;38719;51.418;7.286;2023-05-02T07:42:34;100508.34;;;12.12;70.74
52855;BME280;38719;51.418;7.286;2023-05-02T07:45:02;100508.50;;;11.87;72.19
52855;BME280;38719;51.418;7.286;2023-05-02T07:47:30;100512.09;;;12.08;71.58
52855;BME280;38719;51.418;7.286;2023-05-02T07:49:57;100518.22;;;12.10;70.72
52855;BME280;38719;51.418;7.286;2023-05-02T07:52:26;100519.16;;;12.09;70.89
52855;BME280;38719;51.418;7.286;2023-05-02T07:54:53;100524.25;;;11.93;71.36
52855;BME280;38719;51.418;7.286;2023-05-02T07:57:22;100521.69;;;11.90;71.11
52855;BME280;38719;51.418;7.286;2023-05-02T07:59:50;100527.91;;;11.90;72.33
52855;BME280;38719;51.418;7.286;2023-05-02T08:02:18;100527.94;;;11.89;70.43
52855;BME280;38719;51.418;7.286;2023-05-02T08:04:49;100543.69;;;11.74;71.32
52855;BME280;38719;51.418;7.286;2023-05-02T08:07:16;100543.47;;;11.57;72.90
52855;BME280;38719;51.418;7.286;2023-05-02T08:09:44;100540.13;;;11.52;73.05
52855;BME280;38719;51.418;7.286;2023-05-02T08:12:11;100541.75;;;11.56;72.36
52855;BME280;38719;51.418;7.286;2023-05-02T08:14:40;100556.50;;;11.42;73.58
52855;BME280;38719;51.418;7.286;2023-05-02T08:17:09;100564.84;;;11.09;74.65
52855;BME280;38719;51.418;7.286;2023-05-02T08:19:36;100558.47;;;11.13;74.91
52855;BME280;38719;51.418;7.286;2023-05-02T08:22:04;100567.19;;;11.19;74.45
52855;BME280;38719;51.418;7.286;2023-05-02T08:24:32;100569.41;;;11.06;73.84
52855;BME280;38719;51.418;7.286;2023-05-02T08:27:00;100580.66;;;10.90;72.75
52855;BME280;38719;51.418;7.286;2023-05-02T08:29:28;100584.41;;;10.85;73.85
52855;BME280;38719;51.418;7.286;2023-05-02T08:31:57;100590.91;;;10.51;74.79
52855;BME280;38719;51.418;7.286;2023-05-02T08:34:25;100598.81;;;10.54;74.22
52855;BME280;38719;51.418;7.286;2023-05-02T08:36:53;100599.13;;;10.95;72.42
52855;BME280;38719;51.418;7.286;2023-05-02T08:39:23;100600.88;;;10.71;73.48
52855;BME280;38719;51.418;7.286;2023-05-02T08:41:51;100606.44;;;10.38;73.91
52855;BME280;38719;51.418;7.286;2023-05-02T08:44:19;100609.09;;;10.64;74.69
52855;BME280;38719;51.418;7.286;2023-05-02T08:46:48;100607.06;;;10.71;72.51
52855;BME280;38719;51.418;7.286;2023-05-02T08:49:19;100620.22;;;10.76;72.32
52855;BME280;38719;51.418;7.286;2023-05-02T08:51:48;100623.16;;;11.19;72.34
52855;BME280;38719;51.418;7.286;2023-05-02T08:54:17;100633.38;;;11.06;71.95
52855;BME280;38719;51.418;7.286;2023-05-02T08:56:46;100636.09;;;10.79;72.43
52855;BME280;38719;51.418;7.286;2023-05-02T08:59:14;100631.91;;;10.97;71.10
52855;BME280;38719;51.418;7.286;2023-05-02T09:01:43;100637.19;;;10.73;72.57
52855;BME280;38719;51.418;7.286;2023-05-02T09:04:11;100646.66;;;11.07;70.89
52855;BME280;38719;51.418;7.286;2023-05-02T09:06:41;100645.38;;;10.94;71.20
52855;BME280;38719;51.418;7.286;2023-05-02T09:09:08;100648.38;;;11.08;70.27
52855;BME280;38719;51.418;7.286;2023-05-02T09:11:36;100658.16;;;10.84;71.50
52855;BME280;38719;51.418;7.286;2023-05-02T09:14:13;100656.25;;;10.88;70.91
52855;BME280;38719;51.418;7.286;2023-05-02T09:16:41;100665.25;;;10.84;70.95
52855;BME280;38719;51.418;7.286;2023-05-02T09:19:09;100675.06;;;10.83;71.80
52855;BME280;38719;51.418;7.286;2023-05-02T09:21:38;100672.69;;;10.74;71.17
52855;BME280;38719;51.418;7.286;2023-05-02T09:24:15;100665.59;;;11.00;72.42
52855;BME280;38719;51.418;7.286;2023-05-02T09:26:55;100671.19;;;11.17;72.04
52855;BME280;38719;51.418;7.286;2023-05-02T09:29:23;100669.66;;;11.10;71.12
52855;BME280;38719;51.418;7.286;2023-05-02T09:31:51;100679.84;;;10.99;71.21
52855;BME280;38719;51.418;7.286;2023-05-02T09:34:22;100680.59;;;11.02;71.02
52855;BME280;38719;51.418;7.286;2023-05-02T09:36:51;100678.53;;;11.10;70.90
52855;BME280;38719;51.418;7.286;2023-05-02T09:39:22;100683.31;;;11.01;70.68
52855;BME280;38719;51.418;7.286;2023-05-02T09:41:51;100690.03;;;11.12;71.88
52855;BME280;38719;51.418;7.286;2023-05-02T09:44:21;100694.69;;;11.06;70.42
52855;BME280;38719;51.418;7.286;2023-05-02T09:46:50;100698.19;;;10.81;71.02
52855;BME280;38719;51.418;7.286;2023-05-02T09:49:18;100705.56;;;10.73;71.65
52855;BME280;38719;51.418;7.286;2023-05-02T09:51:47;100712.53;;;10.50;72.97
52855;BME280;38719;51.418;7.286;2023-05-02T09:54:34;100721.22;;;10.28;72.87
52855;BME280;38719;51.418;7.286;2023-05-02T09:57:02;100721.41;;;9.92;74.25
52855;BME280;38719;51.418;7.286;2023-05-02T09:59:32;100721.84;;;10.07;74.51
52855;BME280;38719;51.418;7.286;2023-05-02T10:02:01;100736.97;;;10.35;72.38
52855;BME280;38719;51.418;7.286;2023-05-02T10:04:31;100719.22;;;10.35;71.58
52855;BME280;38719;51.418;7.286;2023-05-02T10:06:59;100735.31;;;10.30;70.78
52855;BME280;38719;51.418;7.286;2023-05-02T10:09:28;100731.25;;;10.48;71.96
52855;BME280;38719;51.418;7.286;2023-05-02T10:12:01;100739.78;;;10.30;71.93
52855;BME280;38719;51.418;7.286;2023-05-02T10:14:30;100739.84;;;10.84;71.44
52855;BME280;38719;51.418;7.286;2023-05-02T10:17:06;100741.16;;;10.72;69.82
52855;BME280;38719;51.418;7.286;2023-05-02T10:19:41;100742.94;;;10.98;68.31
52855;BME280;38719;51.418;7.286;2023-05-02T10:22:11;100739.28;;;10.74;67.96
52855;BME280;38719;51.418;7.286;2023-05-02T10:24:40;100740.84;;;10.81;67.65
52855;BME280;38719;51.418;7.286;2023-05-02T10:27:09;100745.25;;;10.82;66.50
52855;BME280;38719;51.418;7.286;2023-05-02T10:29:37;100745.31;;;11.06;66.67
52855;BME280;38719;51.418;7.286;2023-05-02T10:32:06;100744.25;;;11.11;66.40
52855;BME280;38719;51.418;7.286;2023-05-02T10:34:34;100741.97;;;11.51;66.10
52855;BME280;38719;51.418;7.286;2023-05-02T10:37:02;100741.38;;;11.67;67.53
52855;BME280;38719;51.418;7.286;2023-05-02T10:39:30;100734.13;;;11.94;64.56
52855;BME280;38719;51.418;7.286;2023-05-02T10:42:01;100728.84;;;11.45;66.09
52855;BME280;38719;51.418;7.286;2023-05-02T10:44:34;100729.41;;;11.55;65.76
52855;BME280;38719;51.418;7.286;2023-05-02T10:47:17;100737.94;;;12.12;64.49
52855;BME280;38719;51.418;7.286;2023-05-02T10:49:49;100737.03;;;12.13;63.72
52855;BME280;38719;51.418;7.286;2023-05-02T10:52:28;100745.13;;;12.34;65.23
52855;BME280;38719;51.418;7.286;2023-05-02T10:55:17;100738.47;;;12.22;62.99
52855;BME280;38719;51.418;7.286;2023-05-02T10:58:19;100737.59;;;12.44;63.55
52855;BME280;38719;51.418;7.286;2023-05-02T11:00:48;100734.69;;;12.28;62.49
52855;BME280;38719;51.418;7.286;2023-05-02T11:06:14;100738.47;;;12.66;62.30
52855;BME280;38719;51.418;7.286;2023-05-02T11:08:42;100724.84;;;12.93;61.07
52855;BME280;38719;51.418;7.286;2023-05-02T11:11:38;100727.91;;;13.06;58.00
52855;BME280;38719;51.418;7.286;2023-05-02T11:14:07;100724.41;;;13.04;61.34
52855;BME280;38719;51.418;7.286;2023-05-02T11:17:07;100730.41;;;13.09;57.47
52855;BME280;38719;51.418;7.286;2023-05-02T11:22:52;100737.09;;;12.99;57.00
52855;BME280;38719;51.418;7.286;2023-05-02T11:25:35;100737.47;;;12.47;58.13
52855;BME280;38719;51.418;7.286;2023-05-02T11:28:06;100742.81;;;12.47;58.37
52855;BME280;38719;51.418;7.286;2023-05-02T11:30:39;100739.66;;;13.02;58.72
52855;BME280;38719;51.418;7.286;2023-05-02T11:33:14;100747.22;;;12.92;57.14
52855;BME280;38719;51.418;7.286;2023-05-02T11:35:44;100745.72;;;12.85;56.33
52855;BME280;38719;51.418;7.286;2023-05-02T11:38:14;100745.31;;;12.51;56.67
52855;BME280;38719;51.418;7.286;2023-05-02T11:40:56;100748.78;;;12.53;56.01
52855;BME280;38719;51.418;7.286;2023-05-02T11:43:25;100745.41;;;12.70;56.12
52855;BME280;38719;51.418;7.286;2023-05-02T11:45:57;100743.28;;;13.01;57.43
52855;BME280;38719;51.418;7.286;2023-05-02T11:48:27;100744.84;;;12.84;56.85
52855;BME280;38719;51.418;7.286;2023-05-02T11:50:56;100748.63;;;13.01;56.34
52855;BME280;38719;51.418;7.286;2023-05-02T11:53:25;100740.34;;;13.07;55.36
52855;BME280;38719;51.418;7.286;2023-05-02T11:55:56;100744.75;;;13.08;56.69
52855;BME280;38719;51.418;7.286;2023-05-02T11:58:24;100746.63;;;13.47;56.04
52855;BME280;38719;51.418;7.286;2023-05-02T12:00:55;100747.72;;;13.43;54.17
52855;BME280;38719;51.418;7.286;2023-05-02T12:03:26;100761.13;;;13.21;53.51
52855;BME280;38719;51.418;7.286;2023-05-02T12:05:56;100770.22;;;13.17;53.92
52855;BME280;38719;51.418;7.286;2023-05-02T12:08:25;100764.66;;;13.21;53.23
52855;BME280;38719;51.418;7.286;2023-05-02T12:10:54;100756.66;;;13.42;53.32
52855;BME280;38719;51.418;7.286;2023-05-02T12:13:23;100769.66;;;13.51;52.43
52855;BME280;38719;51.418;7.286;2023-05-02T12:15:52;100760.91;;;13.48;52.97
52855;BME280;38719;51.418;7.286;2023-05-02T12:18:21;100758.34;;;13.84;51.93
52855;BME280;38719;51.418;7.286;2023-05-02T12:20:50;100766.28;;;14.26;50.74
52855;BME280;38719;51.418;7.286;2023-05-02T12:23:20;100765.44;;;14.62;50.61
52855;BME280;38719;51.418;7.286;2023-05-02T12:25:48;100761.88;;;14.61;48.43
52855;BME280;38719;51.418;7.286;2023-05-02T12:28:17;100766.69;;;14.55;49.91
52855;BME280;38719;51.418;7.286;2023-05-02T12:30:47;100760.91;;;13.88;49.39
52855;BME280;38719;51.418;7.286;2023-05-02T12:33:15;100763.94;;;14.75;50.25
52855;BME280;38719;51.418;7.286;2023-05-02T12:35:43;100768.41;;;14.56;48.88
52855;BME280;38719;51.418;7.286;2023-05-02T12:38:14;100778.94;;;14.41;48.05
52855;BME280;38719;51.418;7.286;2023-05-02T12:40:48;100784.94;;;14.46;48.50
52855;BME280;38719;51.418;7.286;2023-05-02T12:43:16;100788.19;;;14.34;50.40
52855;BME280;38719;51.418;7.286;2023-05-02T12:45:43;100775.13;;;14.64;48.60
52855;BME280;38719;51.418;7.286;2023-05-02T12:48:17;100784.50;;;14.75;48.65
52855;BME280;38719;51.418;7.286;2023-05-02T12:50:45;100783.66;;;15.27;46.14
52855;BME280;38719;51.418;7.286;2023-05-02T12:53:13;100784.19;;;14.98;45.59
52855;BME280;38719;51.418;7.286;2023-05-02T12:55:41;100791.97;;;15.40;45.77
52855;BME280;38719;51.418;7.286;2023-05-02T12:58:11;100788.41;;;15.04;45.29
52855;BME280;38719;51.418;7.286;2023-05-02T13:00:40;100792.34;;;15.67;43.35
52855;BME280;38719;51.418;7.286;2023-05-02T13:03:11;100791.78;;;15.43;43.25
52855;BME280;38719;51.418;7.286;2023-05-02T13:05:39;100785.56;;;15.42;43.44
52855;BME280;38719;51.418;7.286;2023-05-02T13:08:07;100790.69;;;16.32;41.92
52855;BME280;38719;51.418;7.286;2023-05-02T13:10:34;100795.00;;;16.34;42.39